tititudorancea.com
Station Historical Data
Daily Summary for January 4, 2019 Units:  Metric    English   Both
« Previous Day
Next Day »
Daily Weekly Monthly Yearly Custom
  High: Low: Average:
Temperature: -17.8 °C 15.1 °C 25.2 °C
Dew Point: -17.8 °C 4.2 °C 9 °C
Humidity: Humidity % 14 % 42 %
Wind Speed: 0 km/h 0 km/h 20.9 km/h
Wind Gust: 0 km/h - -
Wind:- - WSW
Pressure: 0 hPa 999.5 hPa -
Precipitation: 0 mm    
Historical Graphs
 
 
Ararat weather Find more about Weather in Ararat, AU


 



 


Tabular Data for January 4, 2019
Time Temperature Dew Point Pressure Wind Wind Speed Wind Gust Humidity Rainfall Rate (Hourly)
-17.8 °C -17.8 °C 0 hPa Calm     Humidity % 0 mm
00:04 20.5 °C 6.8 °C 1006 hPa Calm     41 % 0 mm
00:09 20.4 °C 7.1 °C 1006 hPa Calm     42 % 0 mm
00:14 20.3 °C 6.6 °C 1006 hPa Calm     41 % 0 mm
00:19 20.3 °C 6.9 °C 1006 hPa Calm     42 % 0 mm
00:24 20.3 °C 6.2 °C 1006 hPa Calm     40 % 0 mm
00:29 20.2 °C 6.6 °C 1006 hPa Calm     41 % 0 mm
00:34 20 °C 7.1 °C 1006 hPa Calm     43 % 0 mm
00:39 19.8 °C 6.2 °C 1006 hPa NW 3.7 km/h 1.3 km/h 41 % 0 mm
00:44 19.8 °C 6.2 °C 1005.6 hPa NW 1.9 km/h   41 % 0 mm
00:49 19.7 °C 6.7 °C 1005.6 hPa Calm     43 % 0 mm
00:54 19.4 °C 6.9 °C 1005.6 hPa Calm     44 % 0 mm
00:59 19.1 °C 6.6 °C 1005.6 hPa NW 1.9 km/h 0.6 km/h 44 % 0 mm
01:04 18.9 °C 6.1 °C 1005.6 hPa Calm     43 % 0 mm
01:09 18.8 °C 6.3 °C 1005.6 hPa Calm     44 % 0 mm
01:14 18.8 °C 6.9 °C 1005.6 hPa Calm     46 % 0 mm
01:19 18.7 °C 6.6 °C 1005.6 hPa Calm     45 % 0 mm
01:24 18.7 °C 6.2 °C 1005.3 hPa Calm     44 % 0 mm
01:29 18.8 °C 6.3 °C 1005.3 hPa NW 3.7 km/h 1 km/h 44 % 0 mm
01:34 18.8 °C 6.9 °C 1005.3 hPa NW 5.6 km/h 2.9 km/h 46 % 0 mm
01:39 18.7 °C 6.6 °C 1005 hPa Calm     45 % 0 mm
01:44 18.8 °C 6.9 °C 1005.3 hPa NW 1.6 km/h 0.6 km/h 46 % 0 mm
01:49 18.8 °C 7.2 °C 1005 hPa NW 1.9 km/h 1.9 km/h 47 % 0 mm
01:54 18.7 °C 6.8 °C 1005 hPa NW 3.7 km/h 1.8 km/h 46 % 0 mm
01:59 18.8 °C 6.6 °C 1005 hPa Calm     45 % 0 mm
02:04 19 °C 6.4 °C 1005 hPa NW 1.9 km/h 0.5 km/h 44 % 0 mm
02:09 19 °C 6.4 °C 1005 hPa Calm     44 % 0 mm
02:14 18.9 °C 6.4 °C 1005 hPa Calm     44 % 0 mm
02:19 18.9 °C 6.4 °C 1005 hPa Calm     44 % 0 mm
02:24 18.9 °C 6.4 °C 1005 hPa Calm     44 % 0 mm
02:29 19 °C 6.4 °C 1004.6 hPa Calm     44 % 0 mm
02:34 19 °C 6.4 °C 1004.6 hPa Calm     44 % 0 mm
02:39 19 °C 6.8 °C 1004.6 hPa NW 1.9 km/h 0.3 km/h 45 % 0 mm
02:44 19 °C 6.8 °C 1004.6 hPa NW 3.7 km/h 1.6 km/h 45 % 0 mm
02:49 19.1 °C 6.5 °C 1004.6 hPa North 5.6 km/h 3.4 km/h 44 % 0 mm
02:54 19.1 °C 6.2 °C 1004.6 hPa NW 3.7 km/h 0.8 km/h 43 % 0 mm
02:59 19.3 °C 6.1 °C 1004.3 hPa Calm     42 % 0 mm
03:04 19.3 °C 5.7 °C 1004.3 hPa NW 3.2 km/h 0.8 km/h 41 % 0 mm
03:09 19.4 °C 5.8 °C 1004.3 hPa NW 5.6 km/h 2.9 km/h 41 % 0 mm
03:14 19.5 °C 5.6 °C 1004.3 hPa NW 3.7 km/h 2.1 km/h 40 % 0 mm
03:19 19.6 °C 5.9 °C 1004.3 hPa NW 4.8 km/h 2.4 km/h 41 % 0 mm
03:24 19.7 °C 5.4 °C 1004.3 hPa North 7.4 km/h 6.6 km/h 39 % 0 mm
03:29 20.2 °C 5.4 °C 1004.3 hPa NW 5.6 km/h 2.7 km/h 38 % 0 mm
03:34 20.4 °C 5.6 °C 1004.3 hPa NW 3.7 km/h 3.2 km/h 38 % 0 mm
03:39 20.4 °C 5.3 °C 1004.3 hPa North 6.4 km/h 4 km/h 37 % 0 mm
03:44 20.6 °C 4.9 °C 1004.3 hPa NW 5.6 km/h 2.7 km/h 36 % 0 mm
03:49 20.7 °C 5.1 °C 1003.9 hPa NW 1.6 km/h 1.1 km/h 36 % 0 mm
03:54 20.8 °C 4.7 °C 1003.9 hPa NW 3.7 km/h 0.6 km/h 35 % 0 mm
03:59 20.8 °C 4.7 °C 1003.9 hPa Calm     35 % 0 mm
04:04 20.8 °C 5.2 °C 1003.9 hPa NW 3.7 km/h 0.2 km/h 36 % 0 mm
04:09 20.6 °C 5.4 °C 1003.9 hPa NW 4.8 km/h 3.4 km/h 37 % 0 mm
04:14 20.4 °C 5.3 °C 1003.9 hPa NW 5.6 km/h 3.5 km/h 37 % 0 mm
04:19 20.3 °C 5.5 °C 1003.9 hPa NW 5.6 km/h 3.9 km/h 38 % 0 mm
04:24 20.2 °C 5.4 °C 1003.6 hPa NW 6.4 km/h 4.2 km/h 38 % 0 mm
04:29 20.2 °C 5 °C 1003.6 hPa NW 5.6 km/h 3.9 km/h 37 % 0 mm
04:34 20.1 °C 5.3 °C 1003.6 hPa NW 5.6 km/h 3.5 km/h 38 % 0 mm
04:39 20 °C 5.2 °C 1003.6 hPa NW 5.6 km/h 2.9 km/h 38 % 0 mm
04:44 19.8 °C 5.1 °C 1003.6 hPa North 5.6 km/h 4.2 km/h 38 % 0 mm
04:49 19.7 °C 5.4 °C 1003.6 hPa North 5.6 km/h 4.2 km/h 39 % 0 mm
04:54 19.6 °C 5.3 °C 1003.6 hPa NW 5.6 km/h 4.2 km/h 39 % 0 mm
04:59 19.7 °C 4.9 °C 1003.6 hPa North 5.6 km/h 4 km/h 38 % 0 mm
05:04 19.8 °C 4.7 °C 1003.6 hPa NW 5.6 km/h 4.2 km/h 37 % 0 mm
05:09 19.9 °C 5.2 °C 1003.6 hPa NW 4.8 km/h 2.7 km/h 38 % 0 mm
05:14 20.1 °C 5.3 °C 1003.6 hPa North 5.6 km/h 1.9 km/h 38 % 0 mm
05:19 20.2 °C 5.1 °C 1003.6 hPa NW 3.7 km/h 1.8 km/h 37 % 0 mm
05:24 20.4 °C 5.3 °C 1003.6 hPa NW 3.7 km/h 2.3 km/h 37 % 0 mm
05:29 20.8 °C 5.2 °C 1003.6 hPa NW 5.6 km/h 4 km/h 36 % 0 mm
05:34 21.5 °C 5.4 °C 1003.6 hPa NW 5.6 km/h 4.7 km/h 35 % 0 mm
05:39 22.1 °C 5.1 °C 1003.6 hPa NW 7.4 km/h 6.1 km/h 33 % 0 mm
05:44 22.9 °C 4.4 °C 1003.6 hPa NW 9.3 km/h 8.2 km/h 30 % 0 mm
05:49 23.5 °C 4.4 °C 1003.9 hPa NW 8 km/h 6.8 km/h 29 % 0 mm
05:54 23.8 °C 4.2 °C 1003.9 hPa NW 6.4 km/h 5 km/h 28 % 0 mm
05:59 23.8 °C 4.7 °C 1003.9 hPa NW 5.6 km/h 2.7 km/h 29 % 0 mm
06:04 23.6 °C 4.5 °C 1003.6 hPa NW 3.7 km/h 1.3 km/h 29 % 0 mm
06:09 23.4 °C 4.8 °C 1003.9 hPa Calm     30 % 0 mm
06:14 23.3 °C 4.7 °C 1003.9 hPa NW 5.6 km/h 3.2 km/h 30 % 0 mm
06:19 23.1 °C 4.6 °C 1003.9 hPa NW 5.6 km/h 1.6 km/h 30 % 0 mm
06:24 22.9 °C 4.4 °C 1003.9 hPa North 5.6 km/h 2.3 km/h 30 % 0 mm
06:29 22.9 °C 4.4 °C 1003.9 hPa NW 4.8 km/h 2.7 km/h 30 % 0 mm
06:34 22.9 °C 4.8 °C 1003.9 hPa NW 5.6 km/h 3.1 km/h 31 % 0 mm
06:39 22.9 °C 4.4 °C 1003.9 hPa NW 9.3 km/h 7.6 km/h 30 % 0 mm
06:44 23 °C 4.9 °C 1003.9 hPa NW 6.4 km/h 6 km/h 31 % 0 mm
06:49 23.1 °C 5 °C 1003.9 hPa NW 9.3 km/h 6.3 km/h 31 % 0 mm
06:54 23 °C 4.9 °C 1003.9 hPa NW 9.3 km/h 7.1 km/h 31 % 0 mm
06:59 22.8 °C 5.3 °C 1003.9 hPa North 7.4 km/h 7.1 km/h 32 % 0 mm
07:04 22.8 °C 5.3 °C 1003.9 hPa NW 7.4 km/h 6.1 km/h 32 % 0 mm
07:09 23 °C 5.4 °C 1003.9 hPa North 7.4 km/h 5.5 km/h 32 % 0 mm
07:14 23.2 °C 6.1 °C 1003.9 hPa NW 6.4 km/h 6.3 km/h 33 % 0 mm
07:19 23.5 °C 5.8 °C 1003.9 hPa NW 6.4 km/h 6.8 km/h 32 % 0 mm
07:24 23.9 °C 5.8 °C 1003.9 hPa North 7.4 km/h 6 km/h 31 % 0 mm
07:29 24.3 °C 5.6 °C 1003.9 hPa NW 9.3 km/h 6.8 km/h 30 % 0 mm
07:34 24.7 °C 5.5 °C 1003.6 hPa NW 9.3 km/h 6.3 km/h 29 % 0 mm
07:39 25.2 °C 5.9 °C 1003.6 hPa NW 9.7 km/h 5.6 km/h 29 % 0 mm
07:44 25.7 °C 6.3 °C 1003.6 hPa NW 11.1 km/h 6.8 km/h 29 % 0 mm
07:49 26 °C 6.1 °C 1003.9 hPa NW 7.4 km/h 5.1 km/h 28 % 0 mm
07:54 26.4 °C 6.4 °C 1003.6 hPa NW 7.4 km/h 5.8 km/h 28 % 0 mm
07:59 26.9 °C 6.3 °C 1003.6 hPa NW 5.6 km/h 3.7 km/h 27 % 0 mm
08:04 27.3 °C 6.6 °C 1003.6 hPa NW 5.6 km/h 4 km/h 27 % 0 mm
08:09 27.7 °C 6.4 °C 1003.6 hPa North 7.4 km/h 4 km/h 26 % 0 mm
08:14 28.1 °C 6.8 °C 1003.6 hPa ESE 7.4 km/h 5.5 km/h 26 % 0 mm
08:19 28.6 °C 6.6 °C 1003.6 hPa ESE 11.1 km/h 4.8 km/h 25 % 0 mm
08:24 29.1 °C 6.4 °C 1003.3 hPa East 13 km/h 5.3 km/h 24 % 0 mm
08:29 29.6 °C 6.3 °C 1003.6 hPa ENE 9.3 km/h 6.3 km/h 23 % 0 mm
08:34 30.3 °C 5.5 °C 1003.3 hPa North 11.1 km/h 8.4 km/h 21 % 0 mm
08:39 30.9 °C 5.3 °C 1003.6 hPa North 18.5 km/h 14.3 km/h 20 % 0 mm
08:44 31.3 °C 5.7 °C 1003.3 hPa North 22.2 km/h 22.2 km/h 20 % 0 mm
08:49 31.7 °C 5.9 °C 1003.3 hPa NNE 24.1 km/h 13.2 km/h 20 % 0 mm
08:54 31.9 °C 5.4 °C 1003.3 hPa North 32.2 km/h 18 km/h 19 % 0 mm
08:59 32.2 °C 5.7 °C 1003.3 hPa North 18.5 km/h 14.6 km/h 19 % 0 mm
09:04 32.4 °C 5.8 °C 1003.3 hPa North 29.6 km/h 12.2 km/h 19 % 0 mm
09:09 32.5 °C 5.9 °C 1003.3 hPa NNW 35.2 km/h 15 km/h 19 % 0 mm
09:14 32.6 °C 6 °C 1003.3 hPa North 40.7 km/h 20.9 km/h 19 % 0 mm
09:19 32.6 °C 6 °C 1003.3 hPa North 29.6 km/h 12.6 km/h 19 % 0 mm
09:24 32.8 °C 6.2 °C 1003.3 hPa NNE 27.4 km/h 13.7 km/h 19 % 0 mm
09:29 33.1 °C 6.3 °C 1003.3 hPa North 24.1 km/h 10.1 km/h 19 % 0 mm
09:34 33.3 °C 6.6 °C 1003.3 hPa North 24.1 km/h 10.9 km/h 19 % 0 mm
09:39 33.6 °C 5.9 °C 1003.3 hPa North 27.8 km/h 21.1 km/h 18 % 0 mm
09:44 33.8 °C 6.2 °C 1003.3 hPa NNW 25.7 km/h 15.8 km/h 18 % 0 mm
09:49 33.9 °C 6.2 °C 1003.3 hPa NE 22.2 km/h 17.9 km/h 18 % 0 mm
09:54 33.9 °C 6.3 °C 1003.3 hPa NNW 27.8 km/h 14.2 km/h 18 % 0 mm
09:59 34.1 °C 6.4 °C 1003.3 hPa NNE 35.2 km/h 16.7 km/h 18 % 0 mm
10:04 34.1 °C 6.4 °C 1003.3 hPa North 27.8 km/h 16.9 km/h 18 % 0 mm
10:09 34.3 °C 6.6 °C 1003.3 hPa NNE 20.4 km/h 17.5 km/h 18 % 0 mm
10:14 34.8 °C 6.9 °C 1002.9 hPa North 16.7 km/h 16.3 km/h 18 % 0 mm
10:19 34.9 °C 6.3 °C 1002.9 hPa NNW 29.6 km/h 17.5 km/h 17 % 0 mm
10:24 35.1 °C 6.3 °C 1002.9 hPa NNE 27.8 km/h 21.9 km/h 17 % 0 mm
10:29 35.2 °C 6.5 °C 1002.6 hPa North 18.5 km/h 17.2 km/h 17 % 0 mm
10:34 35.4 °C 6.7 °C 1002.6 hPa NW 27.8 km/h 16.3 km/h 17 % 0 mm
10:39 35.6 °C 6.8 °C 1002.6 hPa NNW 22.2 km/h 15.8 km/h 17 % 0 mm
10:44 35.8 °C 7 °C 1002.6 hPa North 31.5 km/h 19.3 km/h 17 % 0 mm
10:49 36.2 °C 6.4 °C 1002.6 hPa North 37 km/h 22.7 km/h 16 % 0 mm
10:54 36.3 °C 6.4 °C 1002.6 hPa North 31.5 km/h 18.8 km/h 16 % 0 mm
10:59 36.6 °C 6.7 °C 1002.6 hPa North 30.6 km/h 24.5 km/h 16 % 0 mm
11:04 36.7 °C 5.8 °C 1002.6 hPa NNE 31.5 km/h 23.2 km/h 15 % 0 mm
11:09 36.7 °C 6.8 °C 1002.6 hPa North 32.2 km/h 18 km/h 16 % 0 mm
11:14 36.7 °C 6.8 °C 1002.3 hPa NW 33.8 km/h 16.1 km/h 16 % 0 mm
11:19 37 °C 7 °C 1002.3 hPa North 29 km/h 22.7 km/h 16 % 0 mm
11:24 37.1 °C 6.1 °C 1002.3 hPa NW 35.2 km/h 21.6 km/h 15 % 0 mm
11:29 37.3 °C 7.2 °C 1002.3 hPa NW 29.6 km/h 21.7 km/h 16 % 0 mm
11:34 37 °C 7 °C 1001.9 hPa NW 37 km/h 15.4 km/h 16 % 0 mm
11:39 37.1 °C 7.1 °C 1001.9 hPa NNW 22.2 km/h 17.2 km/h 16 % 0 mm
11:44 37.4 °C 7.3 °C 1001.9 hPa North 29.6 km/h 17.1 km/h 16 % 0 mm
11:49 37.6 °C 7.5 °C 1001.9 hPa NNW 31.5 km/h 21.7 km/h 16 % 0 mm
11:54 37.8 °C 7.7 °C 1001.9 hPa North 22.2 km/h 17.5 km/h 16 % 0 mm
11:59 38.2 °C 8 °C 1001.9 hPa North 37 km/h 18.7 km/h 16 % 0 mm
12:04 38.2 °C 8 °C 1001.9 hPa NNW 27.8 km/h 19 km/h 16 % 0 mm
12:09 38.2 °C 8.8 °C 1001.6 hPa North 20.4 km/h 10.6 km/h 17 % 0 mm
12:14 38.4 °C 8.1 °C 1001.6 hPa North 38.9 km/h 26.4 km/h 16 % 0 mm
12:19 38.2 °C 8 °C 1001.6 hPa NW 31.5 km/h 20.3 km/h 16 % 0 mm
12:24 38.4 °C 8.2 °C 1001.6 hPa NNW 38.9 km/h 21.7 km/h 16 % 0 mm
12:29 38.8 °C 8.4 °C 1001.6 hPa NW 27.8 km/h 14.8 km/h 16 % 0 mm
12:34 39.3 °C 8.8 °C 1001.6 hPa NNE 22.2 km/h 15.4 km/h 16 % 0 mm
12:39 39.4 °C 9 °C 1001.6 hPa North 37 km/h 17.5 km/h 16 % 0 mm
12:44 39.3 °C 7.9 °C 1001.2 hPa NW 44.4 km/h 22.2 km/h 15 % 0 mm
12:49 39.3 °C 7.9 °C 1001.2 hPa NNE 33.3 km/h 20.4 km/h 15 % 0 mm
12:54 39.7 °C 8.2 °C 1001.2 hPa NNW 24.1 km/h 14.6 km/h 15 % 0 mm
12:59 39.8 °C 8.3 °C 1000.9 hPa NNW 33.8 km/h 20 km/h 15 % 0 mm
13:04 39.7 °C 8.2 °C 1000.9 hPa NNW 31.5 km/h 21.7 km/h 15 % 0 mm
13:09 39.9 °C 8.4 °C 1000.6 hPa North 31.5 km/h 28.3 km/h 15 % 0 mm
13:14 40.2 °C 8.6 °C 1000.6 hPa WNW 33.3 km/h 28.5 km/h 15 % 0 mm
13:19 40.6 °C 8.9 °C 1000.9 hPa North 18.5 km/h 10.3 km/h 15 % 0 mm
13:24 41 °C 8.2 °C 1000.6 hPa NW 31.5 km/h 19.8 km/h 14 % 0 mm
13:29 40.8 °C 8.1 °C 1000.6 hPa NW 33.3 km/h 17.5 km/h 14 % 0 mm
13:34 40.5 °C 7.8 °C 1000.6 hPa North 37 km/h 25.6 km/h 14 % 0 mm
13:39 40.6 °C 7.9 °C 1000.6 hPa NW 38.9 km/h 27.4 km/h 14 % 0 mm
13:44 40.5 °C 7.8 °C 1000.6 hPa NNW 27.8 km/h 27.4 km/h 14 % 0 mm
13:49 40.4 °C 7.7 °C 1000.2 hPa NW 42.6 km/h 28.6 km/h 14 % 0 mm
13:54 40.7 °C 8 °C 1000.2 hPa NW 37 km/h 28.2 km/h 14 % 0 mm
13:59 40.5 °C 7.8 °C 999.9 hPa NW 35.2 km/h 17.4 km/h 14 % 0 mm
14:04 40.5 °C 7.8 °C 999.9 hPa North 33.3 km/h 24 km/h 14 % 0 mm
14:09 40.3 °C 7.7 °C 999.9 hPa NNW 45.1 km/h 27.2 km/h 14 % 0 mm
14:14 40.9 °C 8.1 °C 999.9 hPa NW 33.3 km/h 24.5 km/h 14 % 0 mm
14:19 40.9 °C 8.2 °C 999.5 hPa WNW 38.9 km/h 24.9 km/h 14 % 0 mm
14:24 41.1 °C 8.3 °C 999.9 hPa WNW 24.1 km/h 19.6 km/h 14 % 0 mm
14:29 41.2 °C 8.4 °C 999.9 hPa North 37 km/h 17.5 km/h 14 % 0 mm
14:34 41.4 °C 8.6 °C 999.5 hPa WNW 18.5 km/h 12.2 km/h 14 % 0 mm
14:39 40.7 °C 7.9 °C 999.5 hPa WNW 38.9 km/h 25.1 km/h 14 % 0 mm
14:44 40.6 °C 7.9 °C 999.9 hPa West 33.8 km/h 25.4 km/h 14 % 0 mm
14:49 40.8 °C 8.1 °C 999.9 hPa West 31.5 km/h 22.7 km/h 14 % 0 mm
14:54 39.8 °C 13.3 °C 1000.2 hPa SSE 48.1 km/h 19.3 km/h 21 % 0 mm
14:59 35.7 °C 15.9 °C 1000.2 hPa South 29.6 km/h 19 km/h 31 % 0 mm
15:04 35.3 °C 16.1 °C 1000.2 hPa SSW 30.6 km/h 25.6 km/h 32 % 0 mm
15:09 33.8 °C 15.7 °C 1000.6 hPa North 29 km/h 24.5 km/h 34 % 0 mm
15:14 33.2 °C 16.1 °C 1000.6 hPa SSW 37 km/h 22 km/h 36 % 0 mm
15:19 33.1 °C 16.4 °C 1000.9 hPa SSW 38.9 km/h 18.5 km/h 37 % 0 mm
15:24 32.8 °C 16.6 °C 1000.9 hPa SSW 33.3 km/h 21.4 km/h 38 % 0 mm
15:29 32.4 °C 16.2 °C 1000.9 hPa SW 31.5 km/h 23.7 km/h 38 % 0 mm
15:34 32.2 °C 16.4 °C 1000.9 hPa SW 35.2 km/h 28.8 km/h 39 % 0 mm
15:39 31.7 °C 16.4 °C 1001.2 hPa SSW 37 km/h 24.8 km/h 40 % 0 mm
15:44 31.3 °C 16.9 °C 1000.9 hPa SSW 25.7 km/h 29 km/h 42 % 0 mm
15:49 31.6 °C 17.1 °C 1001.2 hPa SSW 31.5 km/h 21.9 km/h 42 % 0 mm
15:54 31.3 °C 16.4 °C 1001.2 hPa South 40.7 km/h 26.2 km/h 41 % 0 mm
15:59 31 °C 16.9 °C 1001.2 hPa SW 40.7 km/h 23.5 km/h 43 % 0 mm
16:04 30.8 °C 16.8 °C 1001.2 hPa South 33.3 km/h 23.7 km/h 43 % 0 mm
16:09 30.6 °C 16.9 °C 1001.6 hPa South 31.5 km/h 18.7 km/h 44 % 0 mm
16:14 29.7 °C 16.4 °C 1001.9 hPa SSW 40.7 km/h 26.9 km/h 45 % 0 mm
16:19 29.7 °C 16.5 °C 1001.9 hPa South 31.5 km/h 12.6 km/h 45 % 0 mm
16:24 29.5 °C 16.7 °C 1002.3 hPa SSE 33.3 km/h 22 km/h 46 % 0 mm
16:29 29.4 °C 16.6 °C 1002.6 hPa SSE 33.3 km/h 20.6 km/h 46 % 0 mm
16:34 28.8 °C 16.3 °C 1002.6 hPa SSE 27.8 km/h 17.9 km/h 47 % 0 mm
16:39 27.9 °C 16.6 °C 1002.6 hPa SSE 31.5 km/h 22.5 km/h 50 % 0 mm
16:44 27.8 °C 16.7 °C 1002.6 hPa South 22.2 km/h 18.5 km/h 51 % 0 mm
16:49 27.6 °C 16.2 °C 1002.6 hPa South 25.9 km/h 23.8 km/h 50 % 0 mm
16:54 26.5 °C 16.2 °C 1002.9 hPa South 29.6 km/h 25.6 km/h 53 % 0 mm
16:59 25.7 °C 15.9 °C 1002.9 hPa SSW 40.7 km/h 28 km/h 55 % 0 mm
17:04 25 °C 15.9 °C 1003.3 hPa South 31.5 km/h 14.5 km/h 57 % 0 mm
17:09 24.7 °C 15.9 °C 1003.3 hPa SSE 31.5 km/h 11.6 km/h 58 % 0 mm
17:14 24.1 °C 15.8 °C 1003.3 hPa North 37 km/h 25.6 km/h 60 % 0 mm
17:19 23.6 °C 15.7 °C 1003.3 hPa SSW 38.9 km/h 26.7 km/h 61 % 0 mm
17:24 23.4 °C 16 °C 1003.3 hPa SSW 27.8 km/h 20.9 km/h 63 % 0 mm
17:29 23.3 °C 15.7 °C 1003.6 hPa SSE 29.6 km/h 12.4 km/h 62 % 0 mm
17:34 23.2 °C 15.6 °C 1003.3 hPa SSE 29.6 km/h 19.6 km/h 62 % 0 mm
17:39 22.8 °C 15.4 °C 1003.3 hPa South 33.3 km/h 21.7 km/h 63 % 0 mm
17:44 22.6 °C 15.4 °C 1003.3 hPa SSW 38.9 km/h 20.8 km/h 64 % 0 mm
17:49 22.4 °C 15.3 °C 1003.6 hPa South 25.9 km/h 24 km/h 64 % 0 mm
17:54 22.4 °C 15.2 °C 1003.6 hPa South 33.3 km/h 21.6 km/h 64 % 0 mm
17:59 22.4 °C 15.3 °C 1003.6 hPa SE 27.8 km/h 12.7 km/h 64 % 0 mm
18:04 22.3 °C 15.1 °C 1003.9 hPa SSE 24.1 km/h 16.7 km/h 64 % 0 mm
18:09 22.4 °C 15 °C 1003.6 hPa South 27.8 km/h 19.3 km/h 63 % 0 mm
18:14 22.6 °C 15.2 °C 1003.9 hPa SSW 40.2 km/h 24.5 km/h 63 % 0 mm
18:19 22.7 °C 15.1 °C 1003.9 hPa SSW 31.5 km/h 20.6 km/h 62 % 0 mm
18:24 22.4 °C 14.7 °C 1003.9 hPa SSW 31.5 km/h 17.2 km/h 62 % 0 mm
18:29 22 °C 14.4 °C 1004.3 hPa South 38.9 km/h 28.3 km/h 62 % 0 mm
18:34 21.4 °C 14.3 °C 1004.3 hPa SSW 33.3 km/h 21.7 km/h 64 % 0 mm
18:39 21.1 °C 14.2 °C 1004.3 hPa South 29.6 km/h 15 km/h 65 % 0 mm
18:44 20.5 °C 14.2 °C 1004.6 hPa SSW 27.8 km/h 16.4 km/h 67 % 0 mm
18:49 20.1 °C 14.2 °C 1004.6 hPa South 33.3 km/h 19.8 km/h 69 % 0 mm
18:54 19.7 °C 14.1 °C 1004.6 hPa SSW 31.5 km/h 18.7 km/h 70 % 0 mm
18:59 19.4 °C 14.1 °C 1005 hPa SSW 37 km/h 27.4 km/h 71 % 0 mm
19:04 19.2 °C 14.1 °C 1005.3 hPa SSE 27.8 km/h 18.3 km/h 72 % 0 mm
19:09 19.1 °C 13.9 °C 1005.6 hPa SW 22.2 km/h 21.4 km/h 72 % 0 mm
19:14 18.9 °C 13.8 °C 1006 hPa SSE 22.2 km/h 21.7 km/h 72 % 0 mm
19:19 18.5 °C 13.6 °C 1006 hPa SSW 33.3 km/h 20.1 km/h 73 % 0 mm
19:24 18.2 °C 13.5 °C 1006 hPa South 37 km/h 28.2 km/h 74 % 0 mm
19:29 17.9 °C 13.4 °C 1005.6 hPa South 31.5 km/h 20.9 km/h 75 % 0 mm
19:34 17.7 °C 13.2 °C 1005.6 hPa SSW 40.7 km/h 27.4 km/h 75 % 0 mm
19:39 17.5 °C 13 °C 1006 hPa North 27.8 km/h 15.8 km/h 75 % 0 mm
19:44 17.4 °C 12.9 °C 1005.6 hPa SSE 25.9 km/h 17.7 km/h 75 % 0 mm
19:49 17.3 °C 12.8 °C 1006 hPa SSE 31.5 km/h 18.7 km/h 75 % 0 mm
19:54 17.2 °C 12.6 °C 1006 hPa South 20.4 km/h 11.6 km/h 74 % 0 mm
19:59 17.1 °C 12.4 °C 1006.3 hPa SSW 32.2 km/h 23.2 km/h 74 % 0 mm
20:04 16.9 °C 12.3 °C 1006.7 hPa South 40.7 km/h 24.9 km/h 74 % 0 mm
20:09 16.8 °C 12.1 °C 1006.7 hPa South 38.9 km/h 25.6 km/h 74 % 0 mm
20:14 16.7 °C 12.1 °C 1006.7 hPa South 38.9 km/h 16.3 km/h 74 % 0 mm
20:19 16.6 °C 11.9 °C 1006.7 hPa South 27.8 km/h 12.4 km/h 74 % 0 mm
20:24 16.6 °C 12.1 °C 1006.7 hPa South 22.2 km/h 9.5 km/h 75 % 0 mm
20:29 16.5 °C 12.1 °C 1006.7 hPa South 29 km/h 17.1 km/h 75 % 0 mm
20:34 16.3 °C 11.9 °C 1007 hPa North 40.7 km/h 17.5 km/h 75 % 0 mm
20:39 16.2 °C 11.8 °C 1007.3 hPa SSW 22.2 km/h 18.8 km/h 75 % 0 mm
20:44 16.2 °C 11.9 °C 1007.7 hPa South 18.5 km/h 17.2 km/h 76 % 0 mm
20:49 16 °C 11.8 °C 1007 hPa SSE 31.5 km/h 15.8 km/h 76 % 0 mm
20:54 15.9 °C 11.7 °C 1008 hPa SSW 31.5 km/h 19.6 km/h 76 % 0 mm
20:59 15.8 °C 11.8 °C 1007.7 hPa South 27.4 km/h 18.3 km/h 77 % 0 mm
21:04 15.8 °C 11.8 °C 1007.3 hPa SSW 22.5 km/h 18.8 km/h 77 % 0 mm
21:09 15.7 °C 11.7 °C 1007 hPa South 27.4 km/h 16.6 km/h 77 % 0 mm
21:14 15.6 °C 11.6 °C 1007.3 hPa South 31.5 km/h 16.9 km/h 77 % 0 mm
21:19 15.6 °C 11.6 °C 1006.7 hPa South 25.9 km/h 20.1 km/h 77 % 0 mm
21:24 15.5 °C 11.3 °C 1006.7 hPa SSE 29.6 km/h 19.6 km/h 76 % 0 mm
21:29 15.4 °C 11.2 °C 1007.3 hPa SSE 20.4 km/h 16.3 km/h 76 % 0 mm
21:34 15.5 °C 11.3 °C 1008 hPa SSE 18.5 km/h 9.3 km/h 76 % 0 mm
21:39 15.5 °C 11.3 °C 1008.4 hPa South 27.8 km/h 12.1 km/h 76 % 0 mm
21:44 15.5 °C 11.3 °C 1007.7 hPa South 27.8 km/h 17.5 km/h 76 % 0 mm
21:49 15.5 °C 11.3 °C 1007.7 hPa SSW 38.9 km/h 18.7 km/h 76 % 0 mm
21:54 15.5 °C 11.3 °C 1007.7 hPa North 24.1 km/h 21.9 km/h 76 % 0 mm
21:59 15.5 °C 11.3 °C 1008 hPa South 14.8 km/h 15.6 km/h 76 % 0 mm
22:04 15.5 °C 11.1 °C 1008 hPa SE 25.7 km/h 15.8 km/h 75 % 0 mm
22:09 15.4 °C 11.1 °C 1008 hPa South 24.1 km/h 14.6 km/h 75 % 0 mm
22:14 15.4 °C 11.2 °C 1008.4 hPa South 22.2 km/h 23.3 km/h 76 % 0 mm
22:19 15.4 °C 11.2 °C 1008.4 hPa South 31.5 km/h 16.1 km/h 76 % 0 mm
22:24 15.4 °C 11 °C 1008.7 hPa South 25.7 km/h 21.6 km/h 75 % 0 mm
22:29 15.4 °C 11 °C 1009 hPa South 25.9 km/h 14.6 km/h 75 % 0 mm
22:34 15.4 °C 11 °C 1009 hPa South 18.5 km/h 12.9 km/h 75 % 0 mm
22:39 15.4 °C 11 °C 1008.7 hPa SSE 25.9 km/h 22 km/h 75 % 0 mm
22:44 15.3 °C 10.9 °C 1008.7 hPa SSE 24.1 km/h 13.5 km/h 75 % 0 mm
22:49 15.3 °C 10.7 °C 1008.7 hPa South 31.5 km/h 22 km/h 74 % 0 mm
22:54 15.3 °C 10.7 °C 1009 hPa SSW 24.1 km/h 14.5 km/h 74 % 0 mm
22:59 15.3 °C 10.7 °C 1008.7 hPa South 25.9 km/h 15.4 km/h 74 % 0 mm
23:04 15.2 °C 10.6 °C 1008.7 hPa South 16.7 km/h 17.5 km/h 74 % 0 mm
23:09 15.2 °C 10.6 °C 1008.7 hPa South 24.1 km/h 11.7 km/h 74 % 0 mm
23:14 15.2 °C 10.6 °C 1008.7 hPa SSW 27.8 km/h 17.5 km/h 74 % 0 mm
23:19 15.2 °C 10.6 °C 1008.7 hPa SSW 31.5 km/h 16.7 km/h 74 % 0 mm
23:24 15.1 °C 10.5 °C 1008.7 hPa South 31.5 km/h 19.5 km/h 74 % 0 mm
23:29 15.1 °C 10.5 °C 1008.4 hPa South 19.3 km/h 13.7 km/h 74 % 0 mm
23:34 15.1 °C 10.7 °C 1009 hPa SSW 27.4 km/h 18 km/h 75 % 0 mm
23:39 15.2 °C 10.8 °C 1008 hPa South 31.5 km/h 17.1 km/h 75 % 0 mm
23:44 15.1 °C 10.7 °C 1009 hPa South 33.3 km/h 19.8 km/h 75 % 0 mm
23:49 15.2 °C 10.9 °C 1008.7 hPa SSE 27.4 km/h 16.9 km/h 76 % 0 mm
23:54 15.2 °C 10.8 °C 1009 hPa South 31.5 km/h 23.2 km/h 75 % 0 mm
23:59 15.1 °C 10.7 °C 1009.4 hPa South 29 km/h 18.5 km/h 75 % 0 mm
Ararat Weather
Compliments of Weather Underground - 2.25 mb
Click here to send mail.


ABOUT

Live weather data from Ararat, Victoria, Australia, 3377
Data uploaded from Cumulus every 5 minutes to Weather Underground.
This site then downloads the raw data for formatting and display.
Metric and imperial data can be displayed. Graphs and historical data available.
Includes Sun and Moon times and rain image live from BOM.

Check out Ararat Weather on Facebook, Twitter and Google +

Help support ongoing costs by checking out the ads





Follow @AraratWeather